sensor_id;sensor_type;location;lat;lon;timestamp;pressure;altitude;pressure_sealevel;temperature;humidity
69879;BME280;57161;43.136;24.706;2024-02-23T00:00:31;98881.94;;;7.09;62.99
69879;BME280;57161;43.136;24.706;2024-02-23T00:02:56;98939.69;;;7.48;63.22
69879;BME280;57161;43.136;24.706;2024-02-23T00:05:23;98937.31;;;7.39;63.27
69879;BME280;57161;43.136;24.706;2024-02-23T00:07:49;98920.44;;;7.37;63.39
69879;BME280;57161;43.136;24.706;2024-02-23T00:10:15;98928.06;;;7.49;63.16
69879;BME280;57161;43.136;24.706;2024-02-23T00:12:41;98924.75;;;7.51;63.46
69879;BME280;57161;43.136;24.706;2024-02-23T00:15:07;98923.69;;;7.54;63.56
69879;BME280;57161;43.136;24.706;2024-02-23T00:17:32;98916.41;;;7.51;63.50
69879;BME280;57161;43.136;24.706;2024-02-23T00:19:58;98900.97;;;7.37;63.64
69879;BME280;57161;43.136;24.706;2024-02-23T00:22:24;98888.59;;;7.38;63.36
69879;BME280;57161;43.136;24.706;2024-02-23T00:24:51;98913.88;;;7.53;63.71
69879;BME280;57161;43.136;24.706;2024-02-23T00:27:16;98916.22;;;7.49;63.86
69879;BME280;57161;43.136;24.706;2024-02-23T00:29:42;98908.38;;;7.47;64.05
69879;BME280;57161;43.136;24.706;2024-02-23T00:32:08;98891.88;;;7.36;63.47
69879;BME280;57161;43.136;24.706;2024-02-23T00:34:33;98892.72;;;7.31;63.66
69879;BME280;57161;43.136;24.706;2024-02-23T00:36:59;98886.13;;;7.34;64.37
69879;BME280;57161;43.136;24.706;2024-02-23T00:39:24;98905.41;;;7.59;64.28
69879;BME280;57161;43.136;24.706;2024-02-23T00:41:50;98907.88;;;7.49;64.34
69879;BME280;57161;43.136;24.706;2024-02-23T00:44:15;98907.41;;;7.45;64.89
69879;BME280;57161;43.136;24.706;2024-02-23T00:46:41;98901.41;;;7.41;65.32
69879;BME280;57161;43.136;24.706;2024-02-23T00:49:07;98906.44;;;7.42;65.41
69879;BME280;57161;43.136;24.706;2024-02-23T00:51:32;98906.59;;;7.31;65.74
69879;BME280;57161;43.136;24.706;2024-02-23T00:53:58;98901.78;;;7.32;65.74
69879;BME280;57161;43.136;24.706;2024-02-23T00:56:23;98890.44;;;7.16;65.91
69879;BME280;57161;43.136;24.706;2024-02-23T00:58:49;98899.63;;;7.25;65.92
69879;BME280;57161;43.136;24.706;2024-02-23T01:01:14;98878.09;;;7.12;66.08
69879;BME280;57161;43.136;24.706;2024-02-23T01:03:40;98873.38;;;7.07;66.12
69879;BME280;57161;43.136;24.706;2024-02-23T01:06:05;98897.50;;;7.17;66.29
69879;BME280;57161;43.136;24.706;2024-02-23T01:08:31;98900.16;;;7.23;66.63
69879;BME280;57161;43.136;24.706;2024-02-23T01:10:56;98901.38;;;7.09;67.35
69879;BME280;57161;43.136;24.706;2024-02-23T01:13:22;98877.59;;;6.95;67.41
69879;BME280;57161;43.136;24.706;2024-02-23T01:15:47;98877.91;;;6.91;67.60
69879;BME280;57161;43.136;24.706;2024-02-23T01:18:16;98849.19;;;6.70;67.83
69879;BME280;57161;43.136;24.706;2024-02-23T01:20:41;98872.34;;;6.91;67.84
69879;BME280;57161;43.136;24.706;2024-02-23T01:23:07;98890.75;;;6.94;67.92
69879;BME280;57161;43.136;24.706;2024-02-23T01:25:33;98887.66;;;6.79;68.30
69879;BME280;57161;43.136;24.706;2024-02-23T01:28:00;98852.09;;;6.58;68.40
69879;BME280;57161;43.136;24.706;2024-02-23T01:30:25;98876.63;;;6.73;68.54
69879;BME280;57161;43.136;24.706;2024-02-23T01:32:51;98866.81;;;6.72;68.96
69879;BME280;57161;43.136;24.706;2024-02-23T01:35:16;98886.56;;;6.69;69.03
69879;BME280;57161;43.136;24.706;2024-02-23T01:37:42;98867.69;;;6.61;69.07
69879;BME280;57161;43.136;24.706;2024-02-23T01:40:07;98874.31;;;6.58;68.99
69879;BME280;57161;43.136;24.706;2024-02-23T01:42:33;98867.25;;;6.57;68.85
69879;BME280;57161;43.136;24.706;2024-02-23T01:44:58;98876.34;;;6.58;69.07
69879;BME280;57161;43.136;24.706;2024-02-23T01:47:25;98857.56;;;6.45;69.17
69879;BME280;57161;43.136;24.706;2024-02-23T01:49:51;98869.13;;;6.49;69.08
69879;BME280;57161;43.136;24.706;2024-02-23T01:52:18;98848.47;;;6.26;68.89
69879;BME280;57161;43.136;24.706;2024-02-23T01:54:44;98855.53;;;6.46;68.60
69879;BME280;57161;43.136;24.706;2024-02-23T01:57:09;98880.38;;;6.38;68.66
69879;BME280;57161;43.136;24.706;2024-02-23T01:59:36;98870.44;;;6.24;68.67
69879;BME280;57161;43.136;24.706;2024-02-23T02:02:03;98880.94;;;6.31;69.06
69879;BME280;57161;43.136;24.706;2024-02-23T02:04:29;98875.03;;;6.21;69.18
69879;BME280;57161;43.136;24.706;2024-02-23T02:06:55;98869.16;;;6.25;68.69
69879;BME280;57161;43.136;24.706;2024-02-23T02:09:21;98875.78;;;6.41;68.31
69879;BME280;57161;43.136;24.706;2024-02-23T02:11:47;98878.88;;;6.37;67.29
69879;BME280;57161;43.136;24.706;2024-02-23T02:14:13;98874.22;;;6.45;66.31
69879;BME280;57161;43.136;24.706;2024-02-23T02:16:39;98878.78;;;6.43;66.52
69879;BME280;57161;43.136;24.706;2024-02-23T02:19:05;98878.72;;;6.48;66.58
69879;BME280;57161;43.136;24.706;2024-02-23T02:21:33;98875.03;;;6.40;66.59
69879;BME280;57161;43.136;24.706;2024-02-23T02:24:00;98833.81;;;6.07;66.75
69879;BME280;57161;43.136;24.706;2024-02-23T02:26:25;98890.66;;;6.43;66.57
69879;BME280;57161;43.136;24.706;2024-02-23T02:28:51;98872.03;;;6.38;66.58
69879;BME280;57161;43.136;24.706;2024-02-23T02:31:17;98889.50;;;6.33;66.89
69879;BME280;57161;43.136;24.706;2024-02-23T02:33:43;98870.38;;;6.29;67.00
69879;BME280;57161;43.136;24.706;2024-02-23T02:36:09;98880.91;;;6.37;66.94
69879;BME280;57161;43.136;24.706;2024-02-23T02:38:35;98863.84;;;6.27;66.79
69879;BME280;57161;43.136;24.706;2024-02-23T02:41:01;98888.09;;;6.45;67.00
69879;BME280;57161;43.136;24.706;2024-02-23T02:43:27;98883.00;;;6.49;66.43
69879;BME280;57161;43.136;24.706;2024-02-23T02:45:53;98880.16;;;6.36;66.58
69879;BME280;57161;43.136;24.706;2024-02-23T02:48:18;98880.94;;;6.31;66.59
69879;BME280;57161;43.136;24.706;2024-02-23T02:50:45;98867.59;;;6.29;66.10
69879;BME280;57161;43.136;24.706;2024-02-23T02:53:11;98881.66;;;6.37;65.98
69879;BME280;57161;43.136;24.706;2024-02-23T02:55:41;98882.16;;;6.36;65.79
69879;BME280;57161;43.136;24.706;2024-02-23T02:58:07;98872.78;;;6.20;66.21
69879;BME280;57161;43.136;24.706;2024-02-23T03:00:33;98882.22;;;6.30;66.12
69879;BME280;57161;43.136;24.706;2024-02-23T03:02:58;98863.63;;;6.25;64.88
69879;BME280;57161;43.136;24.706;2024-02-23T03:05:23;98878.16;;;6.31;65.13
69879;BME280;57161;43.136;24.706;2024-02-23T03:07:49;98867.81;;;6.31;65.70
69879;BME280;57161;43.136;24.706;2024-02-23T03:10:14;98884.88;;;6.41;65.20
69879;BME280;57161;43.136;24.706;2024-02-23T03:12:41;98869.16;;;6.25;65.78
69879;BME280;57161;43.136;24.706;2024-02-23T03:15:06;98865.56;;;6.30;65.31
69879;BME280;57161;43.136;24.706;2024-02-23T03:17:32;98878.34;;;6.39;65.59
69879;BME280;57161;43.136;24.706;2024-02-23T03:19:58;98871.56;;;6.34;65.47
69879;BME280;57161;43.136;24.706;2024-02-23T03:22:24;98852.94;;;6.10;65.77
69879;BME280;57161;43.136;24.706;2024-02-23T03:24:49;98874.53;;;6.17;65.99
69879;BME280;57161;43.136;24.706;2024-02-23T03:27:15;98869.44;;;6.03;65.98
69879;BME280;57161;43.136;24.706;2024-02-23T03:29:40;98881.63;;;6.18;66.26
69879;BME280;57161;43.136;24.706;2024-02-23T03:32:07;98884.13;;;6.16;66.33
69879;BME280;57161;43.136;24.706;2024-02-23T03:34:32;98880.44;;;6.08;67.07
69879;BME280;57161;43.136;24.706;2024-02-23T03:36:58;98873.53;;;5.96;66.80
69879;BME280;57161;43.136;24.706;2024-02-23T03:39:28;98886.81;;;6.03;66.84
69879;BME280;57161;43.136;24.706;2024-02-23T03:41:54;98886.09;;;5.97;66.95
69879;BME280;57161;43.136;24.706;2024-02-23T03:44:19;98887.72;;;5.87;67.34
69879;BME280;57161;43.136;24.706;2024-02-23T03:46:45;98870.22;;;5.67;67.69
69879;BME280;57161;43.136;24.706;2024-02-23T03:49:10;98881.28;;;5.73;67.36
69879;BME280;57161;43.136;24.706;2024-02-23T03:51:37;98891.50;;;5.84;67.69
69879;BME280;57161;43.136;24.706;2024-02-23T03:54:05;98878.59;;;5.62;67.89
69879;BME280;57161;43.136;24.706;2024-02-23T03:56:38;98889.31;;;5.77;67.08
69879;BME280;57161;43.136;24.706;2024-02-23T03:59:05;98883.69;;;5.58;67.18
69879;BME280;57161;43.136;24.706;2024-02-23T04:01:30;98901.47;;;5.68;67.63
69879;BME280;57161;43.136;24.706;2024-02-23T04:03:56;98892.47;;;5.62;67.75
69879;BME280;57161;43.136;24.706;2024-02-23T04:06:22;98902.22;;;5.68;67.89
69879;BME280;57161;43.136;24.706;2024-02-23T04:08:47;98896.81;;;5.52;68.35
69879;BME280;57161;43.136;24.706;2024-02-23T04:11:13;98905.06;;;5.63;68.14
69879;BME280;57161;43.136;24.706;2024-02-23T04:13:39;98886.00;;;5.54;67.80
69879;BME280;57161;43.136;24.706;2024-02-23T04:16:04;98886.50;;;5.52;67.71
69879;BME280;57161;43.136;24.706;2024-02-23T04:18:30;98902.50;;;5.65;67.73
69879;BME280;57161;43.136;24.706;2024-02-23T04:20:56;98903.56;;;5.62;67.87
69879;BME280;57161;43.136;24.706;2024-02-23T04:23:22;98885.00;;;5.51;67.82
69879;BME280;57161;43.136;24.706;2024-02-23T04:25:47;98898.19;;;5.39;69.07
69879;BME280;57161;43.136;24.706;2024-02-23T04:28:13;98900.47;;;5.41;68.88
69879;BME280;57161;43.136;24.706;2024-02-23T04:30:39;98883.72;;;5.22;69.23
69879;BME280;57161;43.136;24.706;2024-02-23T04:33:04;98874.94;;;5.18;69.64
69879;BME280;57161;43.136;24.706;2024-02-23T04:35:29;98861.47;;;4.98;69.78
69879;BME280;57161;43.136;24.706;2024-02-23T04:37:55;98879.34;;;4.97;70.25
69879;BME280;57161;43.136;24.706;2024-02-23T04:40:20;98873.63;;;4.89;70.21
69879;BME280;57161;43.136;24.706;2024-02-23T04:42:46;98886.69;;;4.94;69.94
69879;BME280;57161;43.136;24.706;2024-02-23T04:45:12;98889.44;;;4.94;70.16
69879;BME280;57161;43.136;24.706;2024-02-23T04:47:38;98898.50;;;4.95;70.27
69879;BME280;57161;43.136;24.706;2024-02-23T04:50:06;98880.16;;;4.92;69.78
69879;BME280;57161;43.136;24.706;2024-02-23T04:52:32;98894.94;;;5.00;70.06
69879;BME280;57161;43.136;24.706;2024-02-23T04:54:57;98873.53;;;5.00;68.60
69879;BME280;57161;43.136;24.706;2024-02-23T04:57:22;98893.84;;;5.14;68.39
69879;BME280;57161;43.136;24.706;2024-02-23T04:59:48;98879.75;;;5.12;68.06
69879;BME280;57161;43.136;24.706;2024-02-23T05:02:13;98889.72;;;5.26;68.02
69879;BME280;57161;43.136;24.706;2024-02-23T05:04:39;98891.19;;;5.33;67.77
69879;BME280;57161;43.136;24.706;2024-02-23T05:07:05;98895.00;;;5.30;68.05
69879;BME280;57161;43.136;24.706;2024-02-23T05:09:30;98899.53;;;5.27;67.76
69879;BME280;57161;43.136;24.706;2024-02-23T05:11:57;98904.09;;;5.25;67.63
69879;BME280;57161;43.136;24.706;2024-02-23T05:14:22;98907.06;;;5.32;67.57
69879;BME280;57161;43.136;24.706;2024-02-23T05:16:48;98899.25;;;5.31;67.40
69879;BME280;57161;43.136;24.706;2024-02-23T05:19:13;98900.34;;;5.22;67.89
69879;BME280;57161;43.136;24.706;2024-02-23T05:21:39;98905.16;;;5.16;68.05
69879;BME280;57161;43.136;24.706;2024-02-23T05:24:04;98896.69;;;5.03;67.70
69879;BME280;57161;43.136;24.706;2024-02-23T05:26:31;98895.03;;;4.89;67.47
69879;BME280;57161;43.136;24.706;2024-02-23T05:28:56;98918.06;;;5.08;67.01
69879;BME280;57161;43.136;24.706;2024-02-23T05:34:11;98932.38;;;5.12;68.17
69879;BME280;57161;43.136;24.706;2024-02-23T05:36:36;98914.09;;;4.98;67.15
69879;BME280;57161;43.136;24.706;2024-02-23T05:39:02;98925.41;;;5.00;67.77
69879;BME280;57161;43.136;24.706;2024-02-23T05:41:27;98928.16;;;5.00;67.96
69879;BME280;57161;43.136;24.706;2024-02-23T05:43:53;98945.47;;;5.11;68.82
69879;BME280;57161;43.136;24.706;2024-02-23T05:46:18;98927.19;;;4.97;68.90
69879;BME280;57161;43.136;24.706;2024-02-23T05:48:44;98895.78;;;4.89;68.68
69879;BME280;57161;43.136;24.706;2024-02-23T05:51:09;98941.16;;;5.16;68.13
69879;BME280;57161;43.136;24.706;2024-02-23T05:53:35;98940.41;;;5.16;68.32
69879;BME280;57161;43.136;24.706;2024-02-23T05:56:00;98935.09;;;5.18;68.27
69879;BME280;57161;43.136;24.706;2024-02-23T05:58:26;98937.63;;;5.21;68.04
69879;BME280;57161;43.136;24.706;2024-02-23T06:00:51;98890.94;;;4.95;68.06
69879;BME280;57161;43.136;24.706;2024-02-23T06:03:17;98931.72;;;5.36;67.02
69879;BME280;57161;43.136;24.706;2024-02-23T06:05:43;98924.94;;;5.31;67.62
69879;BME280;57161;43.136;24.706;2024-02-23T06:08:09;98927.47;;;5.29;67.92
69879;BME280;57161;43.136;24.706;2024-02-23T06:10:34;98932.47;;;5.36;67.75
69879;BME280;57161;43.136;24.706;2024-02-23T06:13:00;98934.69;;;5.43;68.17
69879;BME280;57161;43.136;24.706;2024-02-23T06:15:25;98933.72;;;5.35;68.22
69879;BME280;57161;43.136;24.706;2024-02-23T06:17:50;98927.41;;;5.40;68.31
69879;BME280;57161;43.136;24.706;2024-02-23T06:20:16;98934.63;;;5.55;68.14
69879;BME280;57161;43.136;24.706;2024-02-23T06:22:42;98958.22;;;5.61;67.77
69879;BME280;57161;43.136;24.706;2024-02-23T06:25:08;98951.88;;;5.66;67.59
69879;BME280;57161;43.136;24.706;2024-02-23T06:27:33;98935.78;;;5.65;67.55
69879;BME280;57161;43.136;24.706;2024-02-23T06:29:59;98932.22;;;5.70;67.52
69879;BME280;57161;43.136;24.706;2024-02-23T06:32:24;98916.81;;;5.75;67.17
69879;BME280;57161;43.136;24.706;2024-02-23T06:34:50;98945.56;;;6.01;66.72
69879;BME280;57161;43.136;24.706;2024-02-23T06:37:15;98945.91;;;6.17;65.97
69879;BME280;57161;43.136;24.706;2024-02-23T06:39:40;98946.44;;;6.40;65.24
69879;BME280;57161;43.136;24.706;2024-02-23T06:42:06;98958.03;;;6.62;64.89
69879;BME280;57161;43.136;24.706;2024-02-23T06:44:31;98943.56;;;6.70;65.25
69879;BME280;57161;43.136;24.706;2024-02-23T06:46:57;98927.16;;;6.47;65.07
69879;BME280;57161;43.136;24.706;2024-02-23T06:49:22;98971.78;;;6.74;65.25
69879;BME280;57161;43.136;24.706;2024-02-23T06:51:48;98971.88;;;6.87;64.73
69879;BME280;57161;43.136;24.706;2024-02-23T06:54:14;98971.91;;;7.06;64.24
69879;BME280;57161;43.136;24.706;2024-02-23T06:56:39;98948.53;;;7.14;64.01
69879;BME280;57161;43.136;24.706;2024-02-23T06:59:05;98954.84;;;7.34;63.67
69879;BME280;57161;43.136;24.706;2024-02-23T07:01:30;98939.19;;;7.31;63.38
69879;BME280;57161;43.136;24.706;2024-02-23T07:03:56;98954.28;;;7.54;63.14
69879;BME280;57161;43.136;24.706;2024-02-23T07:06:21;98920.34;;;7.42;62.75
69879;BME280;57161;43.136;24.706;2024-02-23T07:08:47;98943.22;;;7.67;62.42
69879;BME280;57161;43.136;24.706;2024-02-23T07:11:12;98942.56;;;7.74;61.70
69879;BME280;57161;43.136;24.706;2024-02-23T07:13:38;98950.09;;;7.93;61.84
69879;BME280;57161;43.136;24.706;2024-02-23T07:16:04;98948.44;;;8.03;61.71
69879;BME280;57161;43.136;24.706;2024-02-23T07:18:29;98948.22;;;8.14;61.48
69879;BME280;57161;43.136;24.706;2024-02-23T07:20:55;98907.88;;;8.07;60.97
69879;BME280;57161;43.136;24.706;2024-02-23T07:23:20;98939.91;;;8.54;60.40
69879;BME280;57161;43.136;24.706;2024-02-23T07:25:48;98947.94;;;8.84;59.73
69879;BME280;57161;43.136;24.706;2024-02-23T07:28:16;98950.34;;;9.00;59.50
69879;BME280;57161;43.136;24.706;2024-02-23T07:30:43;98938.84;;;9.17;58.78
69879;BME280;57161;43.136;24.706;2024-02-23T07:33:09;98953.16;;;9.35;58.21
69879;BME280;57161;43.136;24.706;2024-02-23T07:35:34;98917.25;;;9.31;58.34
69879;BME280;57161;43.136;24.706;2024-02-23T07:38:00;98944.75;;;9.69;58.01
69879;BME280;57161;43.136;24.706;2024-02-23T07:40:25;98944.88;;;9.84;57.29
69879;BME280;57161;43.136;24.706;2024-02-23T07:42:50;98955.81;;;10.03;57.06
69879;BME280;57161;43.136;24.706;2024-02-23T07:45:16;98946.78;;;10.10;56.31
69879;BME280;57161;43.136;24.706;2024-02-23T07:47:41;98931.38;;;10.16;56.67
69879;BME280;57161;43.136;24.706;2024-02-23T07:50:07;98937.47;;;10.36;56.17
69879;BME280;57161;43.136;24.706;2024-02-23T07:52:33;98926.19;;;10.49;55.43
69879;BME280;57161;43.136;24.706;2024-02-23T07:54:58;98936.78;;;10.79;54.98
69879;BME280;57161;43.136;24.706;2024-02-23T07:57:27;98934.44;;;10.91;54.61
69879;BME280;57161;43.136;24.706;2024-02-23T07:59:53;98920.47;;;11.06;53.80
69879;BME280;57161;43.136;24.706;2024-02-23T08:02:18;98930.06;;;11.33;53.35
69879;BME280;57161;43.136;24.706;2024-02-23T08:04:44;98940.94;;;11.52;53.12
69879;BME280;57161;43.136;24.706;2024-02-23T08:07:12;98928.09;;;11.72;52.67
69879;BME280;57161;43.136;24.706;2024-02-23T08:09:38;98923.81;;;11.86;52.20
69879;BME280;57161;43.136;24.706;2024-02-23T08:12:04;98923.47;;;12.05;51.96
69879;BME280;57161;43.136;24.706;2024-02-23T08:14:29;98921.41;;;12.21;51.09
69879;BME280;57161;43.136;24.706;2024-02-23T08:16:55;98917.28;;;12.22;51.00
69879;BME280;57161;43.136;24.706;2024-02-23T08:19:20;98938.13;;;12.51;50.42
69879;BME280;57161;43.136;24.706;2024-02-23T08:21:46;98886.63;;;12.39;49.54
69879;BME280;57161;43.136;24.706;2024-02-23T08:24:12;98921.59;;;12.86;48.38
69879;BME280;57161;43.136;24.706;2024-02-23T08:26:37;98929.19;;;13.01;47.91
69879;BME280;57161;43.136;24.706;2024-02-23T08:29:03;98922.94;;;13.17;47.58
69879;BME280;57161;43.136;24.706;2024-02-23T08:31:29;98919.69;;;13.36;46.62
69879;BME280;57161;43.136;24.706;2024-02-23T08:33:55;98930.03;;;13.59;45.28
69879;BME280;57161;43.136;24.706;2024-02-23T08:36:20;98915.75;;;13.64;45.85
69879;BME280;57161;43.136;24.706;2024-02-23T08:38:46;98931.88;;;13.89;44.64
69879;BME280;57161;43.136;24.706;2024-02-23T08:41:11;98925.72;;;14.07;43.25
69879;BME280;57161;43.136;24.706;2024-02-23T08:43:37;98922.28;;;14.17;42.77
69879;BME280;57161;43.136;24.706;2024-02-23T08:46:02;98941.56;;;14.37;42.01
69879;BME280;57161;43.136;24.706;2024-02-23T08:48:28;98936.84;;;14.40;41.54
69879;BME280;57161;43.136;24.706;2024-02-23T08:50:53;98935.22;;;14.54;40.32
69879;BME280;57161;43.136;24.706;2024-02-23T08:53:20;98928.13;;;14.70;38.89
69879;BME280;57161;43.136;24.706;2024-02-23T08:55:45;98938.03;;;14.89;38.46
69879;BME280;57161;43.136;24.706;2024-02-23T08:58:10;98945.81;;;14.98;37.32
69879;BME280;57161;43.136;24.706;2024-02-23T09:00:36;98933.72;;;15.05;37.05
69879;BME280;57161;43.136;24.706;2024-02-23T09:03:04;98917.63;;;15.15;37.42
69879;BME280;57161;43.136;24.706;2024-02-23T09:05:30;98930.44;;;15.26;36.58
69879;BME280;57161;43.136;24.706;2024-02-23T09:07:55;98932.88;;;15.39;36.32
69879;BME280;57161;43.136;24.706;2024-02-23T09:10:21;98931.28;;;15.46;36.51
69879;BME280;57161;43.136;24.706;2024-02-23T09:12:46;98910.66;;;15.43;36.29
69879;BME280;57161;43.136;24.706;2024-02-23T09:15:12;98928.94;;;15.52;36.08
69879;BME280;57161;43.136;24.706;2024-02-23T09:17:40;98943.44;;;15.75;35.74
69879;BME280;57161;43.136;24.706;2024-02-23T09:20:06;98930.84;;;15.76;34.87
69879;BME280;57161;43.136;24.706;2024-02-23T09:22:32;98920.72;;;16.00;34.86
69879;BME280;57161;43.136;24.706;2024-02-23T09:24:58;98927.88;;;16.11;34.39
69879;BME280;57161;43.136;24.706;2024-02-23T09:27:23;98914.50;;;16.02;34.47
69879;BME280;57161;43.136;24.706;2024-02-23T09:29:49;98927.03;;;16.37;33.89
69879;BME280;57161;43.136;24.706;2024-02-23T09:32:14;98914.13;;;16.34;33.64
69879;BME280;57161;43.136;24.706;2024-02-23T09:34:40;98930.13;;;16.41;34.17
69879;BME280;57161;43.136;24.706;2024-02-23T09:37:05;98925.72;;;16.48;33.82
69879;BME280;57161;43.136;24.706;2024-02-23T09:39:30;98917.97;;;16.58;34.14
69879;BME280;57161;43.136;24.706;2024-02-23T09:41:56;98921.59;;;16.68;33.59
69879;BME280;57161;43.136;24.706;2024-02-23T09:44:32;98922.34;;;16.78;33.84
69879;BME280;57161;43.136;24.706;2024-02-23T09:47:04;98922.03;;;16.94;33.88
69879;BME280;57161;43.136;24.706;2024-02-23T09:49:40;98919.78;;;17.02;33.19
69879;BME280;57161;43.136;24.706;2024-02-23T09:52:07;98924.53;;;16.99;32.91
69879;BME280;57161;43.136;24.706;2024-02-23T09:54:34;98919.03;;;17.01;32.97
69879;BME280;57161;43.136;24.706;2024-02-23T09:57:01;98917.13;;;16.94;34.48
69879;BME280;57161;43.136;24.706;2024-02-23T09:59:28;98905.53;;;17.09;34.07
69879;BME280;57161;43.136;24.706;2024-02-23T10:01:56;98902.25;;;17.13;33.78
69879;BME280;57161;43.136;24.706;2024-02-23T10:04:22;98908.59;;;17.23;33.70
69879;BME280;57161;43.136;24.706;2024-02-23T10:06:49;98898.50;;;17.20;33.85
69879;BME280;57161;43.136;24.706;2024-02-23T10:09:14;98888.84;;;17.23;33.08
69879;BME280;57161;43.136;24.706;2024-02-23T10:11:40;98889.75;;;17.26;33.24
69879;BME280;57161;43.136;24.706;2024-02-23T10:14:06;98879.47;;;17.30;33.03
69879;BME280;57161;43.136;24.706;2024-02-23T10:16:31;98881.50;;;17.39;32.82
69879;BME280;57161;43.136;24.706;2024-02-23T10:18:57;98868.72;;;17.38;32.48
69879;BME280;57161;43.136;24.706;2024-02-23T10:21:23;98879.53;;;17.52;32.88
69879;BME280;57161;43.136;24.706;2024-02-23T10:23:50;98874.00;;;17.63;32.06
69879;BME280;57161;43.136;24.706;2024-02-23T10:26:17;98872.38;;;17.60;31.93
69879;BME280;57161;43.136;24.706;2024-02-23T10:28:45;98889.44;;;17.72;31.86
69879;BME280;57161;43.136;24.706;2024-02-23T10:31:11;98874.44;;;17.69;31.70
69879;BME280;57161;43.136;24.706;2024-02-23T10:33:37;98878.88;;;17.73;31.97
69879;BME280;57161;43.136;24.706;2024-02-23T10:36:04;98860.03;;;17.96;31.79
69879;BME280;57161;43.136;24.706;2024-02-23T10:38:35;98867.56;;;18.04;31.88
69879;BME280;57161;43.136;24.706;2024-02-23T10:41:05;98861.03;;;18.01;31.88
69879;BME280;57161;43.136;24.706;2024-02-23T10:43:44;98862.19;;;18.08;32.10
69879;BME280;57161;43.136;24.706;2024-02-23T10:46:12;98862.03;;;18.06;32.13
69879;BME280;57161;43.136;24.706;2024-02-23T10:48:44;98860.44;;;18.24;31.66
69879;BME280;57161;43.136;24.706;2024-02-23T10:51:13;98846.16;;;18.22;31.34
69879;BME280;57161;43.136;24.706;2024-02-23T10:53:40;98861.78;;;18.23;32.25
69879;BME280;57161;43.136;24.706;2024-02-23T10:56:06;98843.19;;;18.20;31.97
69879;BME280;57161;43.136;24.706;2024-02-23T10:58:32;98844.34;;;18.26;32.05
69879;BME280;57161;43.136;24.706;2024-02-23T11:01:00;98827.56;;;18.40;31.61
69879;BME280;57161;43.136;24.706;2024-02-23T11:03:30;98836.44;;;18.46;32.14
69879;BME280;57161;43.136;24.706;2024-02-23T11:05:56;98845.41;;;18.43;32.11
69879;BME280;57161;43.136;24.706;2024-02-23T11:08:22;98830.19;;;18.48;31.67
69879;BME280;57161;43.136;24.706;2024-02-23T11:10:51;98838.47;;;18.55;31.65
69879;BME280;57161;43.136;24.706;2024-02-23T11:13:17;98838.72;;;18.59;32.05
69879;BME280;57161;43.136;24.706;2024-02-23T11:15:43;98832.13;;;18.67;31.77
69879;BME280;57161;43.136;24.706;2024-02-23T11:18:22;98828.44;;;18.64;31.86
69879;BME280;57161;43.136;24.706;2024-02-23T11:20:54;98832.72;;;18.65;31.67
69879;BME280;57161;43.136;24.706;2024-02-23T11:23:21;98827.53;;;18.62;31.89
69879;BME280;57161;43.136;24.706;2024-02-23T11:28:27;98824.84;;;18.64;32.19
69879;BME280;57161;43.136;24.706;2024-02-23T11:30:53;98820.41;;;18.60;32.13
69879;BME280;57161;43.136;24.706;2024-02-23T11:33:26;98828.97;;;18.51;32.15
69879;BME280;57161;43.136;24.706;2024-02-23T11:35:51;98815.16;;;18.45;32.16
69879;BME280;57161;43.136;24.706;2024-02-23T11:38:18;98824.47;;;18.36;32.69
69879;BME280;57161;43.136;24.706;2024-02-23T11:40:47;98816.34;;;18.30;32.95
69879;BME280;57161;43.136;24.706;2024-02-23T11:43:13;98804.34;;;18.42;32.20
69879;BME280;57161;43.136;24.706;2024-02-23T11:45:40;98815.47;;;18.61;32.14
69879;BME280;57161;43.136;24.706;2024-02-23T11:48:06;98801.41;;;18.73;32.39
69879;BME280;57161;43.136;24.706;2024-02-23T11:50:32;98793.28;;;18.79;32.52
69879;BME280;57161;43.136;24.706;2024-02-23T11:52:58;98797.47;;;18.78;32.25
69879;BME280;57161;43.136;24.706;2024-02-23T11:55:25;98783.94;;;18.76;32.66
69879;BME280;57161;43.136;24.706;2024-02-23T11:57:51;98784.66;;;18.77;32.72
69879;BME280;57161;43.136;24.706;2024-02-23T12:00:17;98774.59;;;18.74;32.70
69879;BME280;57161;43.136;24.706;2024-02-23T12:02:45;98783.06;;;18.85;32.56
69879;BME280;57161;43.136;24.706;2024-02-23T12:05:15;98786.06;;;18.99;32.88
69879;BME280;57161;43.136;24.706;2024-02-23T12:07:41;98781.41;;;19.15;32.92
69879;BME280;57161;43.136;24.706;2024-02-23T12:10:07;98784.22;;;19.15;32.50
69879;BME280;57161;43.136;24.706;2024-02-23T12:12:33;98784.59;;;19.33;32.45
69879;BME280;57161;43.136;24.706;2024-02-23T12:14:59;98768.38;;;19.22;31.86
69879;BME280;57161;43.136;24.706;2024-02-23T12:17:25;98772.06;;;19.25;31.99
69879;BME280;57161;43.136;24.706;2024-02-23T12:20:01;98766.00;;;19.18;32.08
69879;BME280;57161;43.136;24.706;2024-02-23T12:22:27;98765.88;;;19.16;32.21
69879;BME280;57161;43.136;24.706;2024-02-23T12:24:52;98784.88;;;19.26;31.74
69879;BME280;57161;43.136;24.706;2024-02-23T12:27:18;98776.59;;;19.18;32.11
69879;BME280;57161;43.136;24.706;2024-02-23T12:29:54;98766.63;;;19.29;32.09
69879;BME280;57161;43.136;24.706;2024-02-23T12:32:20;98757.28;;;19.38;31.73
69879;BME280;57161;43.136;24.706;2024-02-23T12:34:47;98758.75;;;19.39;31.64
69879;BME280;57161;43.136;24.706;2024-02-23T12:37:18;98757.63;;;19.44;31.85
69879;BME280;57161;43.136;24.706;2024-02-23T12:39:44;98756.03;;;19.53;31.65
69879;BME280;57161;43.136;24.706;2024-02-23T12:42:10;98745.94;;;19.38;31.62
69879;BME280;57161;43.136;24.706;2024-02-23T12:44:36;98748.03;;;19.49;32.29
69879;BME280;57161;43.136;24.706;2024-02-23T12:47:01;98754.69;;;19.65;31.71
69879;BME280;57161;43.136;24.706;2024-02-23T12:49:27;98744.13;;;19.54;31.37
69879;BME280;57161;43.136;24.706;2024-02-23T12:51:52;98755.28;;;19.75;31.18
69879;BME280;57161;43.136;24.706;2024-02-23T12:54:18;98750.31;;;19.88;30.62